Time;durP1;ratioP1;P1;durP2;ratioP2;P2;SDS_P1;SDS_P2;PMS_P1;PMS_P2;Temp;Humidity;BMP_temperature;BMP_pressure;BME280_temperature;BME280_humidity;BME280_pressure;Samples;Min_cycle;Max_cycle;Signal;HPM_P1;HPM_P2
2023/09/10 00:02:16;;;;;;;15.72;11.80;;;;;;;19.83;87.72;100969.56;5007224;57;1142850;-73
2023/09/10 00:07:21;;;;;;;28.55;12.63;;;;;;;19.94;87.80;100971.40;4977172;57;1143206;-74
2023/09/10 00:12:27;;;;;;;22.13;12.47;;;;;;;20.02;87.85;100970.03;5089048;57;1142861;-73
2023/09/10 00:17:32;;;;;;;23.38;12.60;;;;;;;20.11;87.69;100969.54;5020430;57;1142934;-74
2023/09/10 00:22:39;;;;;;;26.68;12.90;;;;;;;19.98;86.37;100962.01;5020139;57;1142750;-73
2023/09/10 00:27:45;;;;;;;24.32;13.88;;;;;;;19.84;86.38;100960.50;5052022;56;1143120;-74
2023/09/10 00:32:50;;;;;;;18.37;12.28;;;;;;;19.69;86.30;100966.21;5103899;56;1142695;-74
2023/09/10 00:37:56;;;;;;;18.60;12.93;;;;;;;19.49;86.53;100965.17;5002508;56;1143167;-74
2023/09/10 00:43:02;;;;;;;20.15;12.60;;;;;;;19.35;87.15;100964.45;4940601;57;1143042;-74
2023/09/10 00:48:08;;;;;;;20.23;13.20;;;;;;;19.33;87.80;100961.94;4960201;57;1142969;-73
2023/09/10 00:53:14;;;;;;;24.05;13.03;;;;;;;19.29;88.19;100954.38;4940804;57;1142748;-73
2023/09/10 00:58:19;;;;;;;26.10;13.60;;;;;;;19.30;88.72;100954.71;4940291;57;1142766;-74
2023/09/10 01:03:28;;;;;;;18.55;12.35;;;;;;;19.22;88.46;100957.39;4992174;57;1142856;-73
2023/09/10 01:08:34;;;;;;;20.17;12.65;;;;;;;19.10;88.37;100944.77;4949909;57;1142999;-74
2023/09/10 01:14:07;;;;;;;19.48;12.33;;;;;;;18.97;88.79;100944.41;4857993;58;1142956;-74
2023/09/10 01:19:53;;;;;;;16.82;11.45;;;;;;;18.98;90.27;100946.09;4786239;59;1143083;-73
2023/09/10 01:25:00;;;;;;;22.37;13.10;;;;;;;19.06;90.16;100953.33;4785423;58;1142890;-74
2023/09/10 01:30:09;;;;;;;19.17;13.70;;;;;;;19.03;89.96;100952.30;4851507;59;1142607;-74
2023/09/10 01:35:25;;;;;;;21.68;14.15;;;;;;;18.91;89.67;100953.95;4881816;57;1142639;-74
2023/09/10 01:40:38;;;;;;;23.35;13.35;;;;;;;18.75;89.92;100957.07;4931661;58;1143139;-75
2023/09/10 01:45:44;;;;;;;21.90;12.70;;;;;;;18.61;90.39;100953.16;4954750;58;1142935;-74
2023/09/10 01:50:50;;;;;;;26.07;13.83;;;;;;;18.50;90.83;100952.89;4935434;58;1143172;-73
2023/09/10 01:55:56;;;;;;;26.45;14.38;;;;;;;18.52;91.85;100950.89;4935447;58;1143242;-73
2023/09/10 02:01:03;;;;;;;18.02;13.24;;;;;;;18.55;91.67;100947.06;4935297;58;1142906;-74
2023/09/10 02:06:09;;;;;;;24.30;14.35;;;;;;;18.55;92.30;100942.54;4864196;58;1142710;-75
2023/09/10 02:11:14;;;;;;;24.75;14.98;;;;;;;18.59;92.40;100940.42;4946186;56;1143160;-74
2023/09/10 02:16:20;;;;;;;29.47;15.23;;;;;;;18.55;92.11;100937.69;5039079;56;1142807;-73
2023/09/10 02:21:26;;;;;;;20.13;13.27;;;;;;;18.56;92.95;100939.36;5045161;56;1143104;-74
2023/09/10 02:26:31;;;;;;;24.92;13.35;;;;;;;18.61;92.37;100929.89;5015749;57;1143023;-72
2023/09/10 02:31:37;;;;;;;20.95;13.90;;;;;;;18.53;91.69;100935.16;5081156;56;1142702;-74
2023/09/10 02:36:42;;;;;;;19.57;14.23;;;;;;;18.49;92.10;100927.09;5119270;56;1142906;-73
2023/09/10 02:41:49;;;;;;;23.60;14.93;;;;;;;18.36;92.35;100926.70;5099000;56;1142915;-72
2023/09/10 02:46:55;;;;;;;17.98;13.22;;;;;;;18.38;93.54;100927.39;5099475;56;1142728;-74
2023/09/10 02:52:01;;;;;;;22.67;14.55;;;;;;;18.29;92.32;100929.69;5099238;56;1142721;-73
2023/09/10 02:57:07;;;;;;;26.62;14.08;;;;;;;18.14;92.69;100929.94;5118753;56;1142770;-73
2023/09/10 03:02:12;;;;;;;29.80;16.07;;;;;;;18.16;93.42;100930.12;5098486;56;1143028;-73
2023/09/10 03:07:18;;;;;;;36.23;14.73;;;;;;;18.12;93.33;100935.45;5011209;56;1142849;-73
2023/09/10 03:12:27;;;;;;;27.40;15.63;;;;;;;17.96;92.49;100930.48;5035100;57;1143230;-74
2023/09/10 03:17:33;;;;;;;29.57;17.32;;;;;;;17.80;93.50;100931.20;5014338;57;1142900;-73
2023/09/10 03:22:40;;;;;;;27.05;16.27;;;;;;;17.70;94.98;100927.78;5003639;57;1143002;-74
2023/09/10 03:27:45;;;;;;;25.68;16.17;;;;;;;17.67;94.87;100925.41;5028623;56;1143126;-74
2023/09/10 03:32:52;;;;;;;25.67;14.90;;;;;;;17.66;95.88;100923.73;5025479;56;1142997;-74
2023/09/10 03:37:57;;;;;;;21.37;14.47;;;;;;;17.70;95.86;100919.27;5015613;57;1142829;-74
2023/09/10 03:43:03;;;;;;;24.32;15.22;;;;;;;17.74;96.13;100917.09;5012516;56;1142943;-73
2023/09/10 03:48:10;;;;;;;24.63;14.60;;;;;;;17.79;96.09;100914.30;5127646;56;1257919;-74
2023/09/10 03:53:17;;;;;;;30.36;14.90;;;;;;;17.81;96.26;100908.30;5109539;56;1143107;-74
2023/09/10 03:58:22;;;;;;;18.03;14.03;;;;;;;17.80;96.41;100905.28;5078616;56;1142864;-73
2023/09/10 04:03:28;;;;;;;27.80;14.35;;;;;;;17.74;96.55;100901.04;5090006;56;1142647;-74
2023/09/10 04:08:34;;;;;;;18.77;14.23;;;;;;;17.66;96.21;100897.82;5030610;56;1143095;-74
2023/09/10 04:13:39;;;;;;;24.67;14.00;;;;;;;17.58;96.93;100894.53;5001700;57;1142731;-73
2023/09/10 04:18:45;;;;;;;19.36;13.80;;;;;;;17.57;97.59;100895.53;4940695;57;1142746;-73
2023/09/10 04:23:51;;;;;;;22.45;14.73;;;;;;;17.58;97.12;100889.69;4925821;57;1143026;-74
2023/09/10 04:28:57;;;;;;;46.93;16.93;;;;;;;17.53;97.93;100883.98;4946357;57;1143157;-74
2023/09/10 04:34:02;;;;;;;32.67;16.17;;;;;;;17.51;97.74;100896.16;4992087;57;1143178;-73
2023/09/10 04:39:09;;;;;;;24.47;15.13;;;;;;;17.42;98.27;100894.40;5099353;56;1142792;-74
2023/09/10 04:44:16;;;;;;;30.40;14.54;;;;;;;17.50;99.31;100897.66;5079428;56;1142948;-74
2023/09/10 04:49:24;;;;;;;28.20;15.40;;;;;;;17.57;99.47;100903.55;5078868;56;1143003;-73
2023/09/10 04:54:30;;;;;;;33.45;15.25;;;;;;;17.68;99.77;100897.67;5093192;56;1142940;-74
2023/09/10 04:59:36;;;;;;;38.60;17.40;;;;;;;17.68;99.36;100899.00;4989558;57;1142937;-73
2023/09/10 05:04:41;;;;;;;30.90;17.90;;;;;;;17.70;100.00;100905.05;5066094;56;1142970;-75
2023/09/10 05:09:47;;;;;;;29.50;17.30;;;;;;;17.66;100.00;100904.51;5015315;56;1145075;-73
2023/09/10 05:14:53;;;;;;;24.57;15.73;;;;;;;17.64;100.00;100911.00;5074939;56;1145101;-74
2023/09/10 05:19:59;;;;;;;30.20;16.03;;;;;;;17.71;100.00;100914.25;5010676;57;1145659;-74
2023/09/10 05:25:05;;;;;;;32.13;18.65;;;;;;;17.80;100.00;100914.64;5011463;57;1145164;-73
2023/09/10 05:30:13;;;;;;;32.47;17.23;;;;;;;17.83;100.00;100919.69;5054477;57;1145334;-75
2023/09/10 05:35:19;;;;;;;23.00;16.15;;;;;;;17.87;100.00;100923.71;5003307;56;1144918;-74
2023/09/10 05:40:25;;;;;;;32.05;16.73;;;;;;;18.02;100.00;100918.66;5025723;56;1144857;-73
2023/09/10 05:45:34;;;;;;;32.75;17.75;;;;;;;18.22;100.00;100921.94;4975458;57;1145041;-74
2023/09/10 05:50:42;;;;;;;31.48;18.35;;;;;;;18.48;100.00;100924.61;4963894;56;1145213;-74
2023/09/10 05:55:48;;;;;;;25.37;18.07;;;;;;;18.78;100.00;100924.59;5015516;56;1145111;-74
2023/09/10 06:00:54;;;;;;;27.65;16.02;;;;;;;19.09;100.00;100927.03;4954011;57;1145023;-74
2023/09/10 06:06:01;;;;;;;21.05;15.25;;;;;;;19.38;100.00;100927.92;5049371;56;1145158;-74
2023/09/10 06:11:07;;;;;;;24.72;15.35;;;;;;;19.70;100.00;100928.97;5014374;57;1144807;-74
2023/09/10 06:16:14;;;;;;;22.25;16.02;;;;;;;20.00;100.00;100923.75;5096976;56;1145178;-74
2023/09/10 06:21:19;;;;;;;24.72;15.83;;;;;;;20.20;100.00;100925.53;5010596;56;1144952;-74
2023/09/10 06:26:25;;;;;;;32.40;15.28;;;;;;;20.34;100.00;100925.33;5088850;56;1145228;-74
2023/09/10 06:31:31;;;;;;;24.33;15.20;;;;;;;20.54;100.00;100923.96;5176577;55;1145113;-74
2023/09/10 06:36:37;;;;;;;20.05;15.60;;;;;;;20.74;100.00;100921.70;5205524;55;1145251;-74
2023/09/10 06:41:43;;;;;;;25.12;16.42;;;;;;;20.90;99.75;100920.78;5185312;55;1145064;-74
2023/09/10 06:46:49;;;;;;;19.07;14.13;;;;;;;21.10;100.00;100913.08;5184382;55;1143013;-74
2023/09/10 06:51:56;;;;;;;18.00;15.45;;;;;;;21.33;99.91;100913.48;5176092;56;1145026;-75
2023/09/10 06:57:01;;;;;;;16.85;13.60;;;;;;;21.64;99.17;100916.60;5098344;55;1142908;-73
2023/09/10 07:02:07;;;;;;;20.07;15.37;;;;;;;21.83;98.90;100916.10;5098829;55;1142821;-74
2023/09/10 07:07:12;;;;;;;24.63;14.55;;;;;;;;;;5074031;56;1142755;-74
2023/09/10 07:12:17;;;;;;;16.78;13.80;;;;;;;22.29;97.69;100920.05;5050341;57;821931;-74
2023/09/10 07:17:22;;;;;;;18.82;13.83;;;;;;;22.60;96.72;100918.50;5018962;56;1140625;-73
2023/09/10 07:22:28;;;;;;;15.80;12.97;;;;;;;22.85;96.19;100919.05;5069871;56;1142626;-73
2023/09/10 07:27:34;;;;;;;19.87;15.25;;;;;;;22.95;94.20;100916.88;5036248;56;1143008;-75
2023/09/10 07:32:41;;;;;;;15.63;13.38;;;;;;;23.17;94.09;100915.05;5140486;56;1143073;-75
2023/09/10 07:37:46;;;;;;;17.40;14.07;;;;;;;23.19;92.52;100920.59;5205928;55;1143147;-74
2023/09/10 07:42:52;;;;;;;17.27;13.30;;;;;;;23.24;92.37;100915.44;5169649;55;1143037;-74
2023/09/10 07:47:59;;;;;;;23.05;12.58;;;;;;;23.33;92.61;100920.21;5076554;56;1142859;-75
2023/09/10 07:53:06;;;;;;;17.40;12.53;;;;;;;23.48;93.50;100920.47;5025170;56;1143097;-73
2023/09/10 07:58:12;;;;;;;18.45;13.10;;;;;;;23.74;93.13;100917.70;5042897;57;1143007;-74
2023/09/10 08:03:17;;;;;;;15.43;11.35;;;;;;;23.84;91.90;100922.24;5025911;56;1143077;-74
2023/09/10 08:08:23;;;;;;;13.58;12.10;;;;;;;24.11;92.41;100917.89;5023108;57;1143388;-74
2023/09/10 08:13:29;;;;;;;21.70;13.10;;;;;;;24.20;90.36;100915.34;5040388;57;1142865;-73
2023/09/10 08:18:34;;;;;;;16.87;11.53;;;;;;;24.33;90.84;100914.62;5083904;56;1142865;-74
2023/09/10 08:23:42;;;;;;;17.90;11.97;;;;;;;24.72;91.11;100916.19;4995256;57;1143027;-74
2023/09/10 08:28:48;;;;;;;30.62;11.33;;;;;;;25.10;89.74;100909.78;4984562;57;1143230;-75
2023/09/10 08:33:53;;;;;;;11.63;10.25;;;;;;;25.12;86.64;100908.22;5109185;56;1143080;-75
2023/09/10 08:38:59;;;;;;;16.07;11.05;;;;;;;25.15;85.96;100912.72;5095892;56;1142847;-74
2023/09/10 08:44:06;;;;;;;15.40;11.22;;;;;;;25.39;87.45;100914.52;5095972;55;1143111;-74
2023/09/10 08:49:13;;;;;;;15.00;10.60;;;;;;;25.53;86.02;100914.84;5035269;56;1143006;-74
2023/09/10 08:54:19;;;;;;;11.10;9.93;;;;;;;25.56;84.21;100910.38;5014378;56;1142924;-74
2023/09/10 08:59:25;;;;;;;11.70;9.30;;;;;;;25.68;85.64;100903.84;5015770;56;1140698;-74
2023/09/10 09:04:31;;;;;;;14.10;9.17;;;;;;;25.72;83.77;100897.80;5014837;56;1140910;-75
2023/09/10 09:09:42;;;;;;;14.90;9.13;;;;;;;25.89;83.42;100891.44;5023277;56;1141595;-75
2023/09/10 09:14:50;;;;;;;12.93;8.03;;;;;;;26.02;83.28;100883.28;4958836;57;1141027;-75
2023/09/10 09:19:58;;;;;;;10.90;9.08;;;;;;;26.18;80.38;100886.91;5080023;56;1141185;-74
2023/09/10 09:25:04;;;;;;;10.00;8.60;;;;;;;26.34;81.32;100886.16;5185553;55;1141113;-74
2023/09/10 09:30:11;;;;;;;11.95;9.08;;;;;;;26.51;79.92;100886.84;5031659;56;1140951;-75
2023/09/10 09:35:18;;;;;;;17.42;8.50;;;;;;;26.67;80.09;100887.41;5031283;56;1140891;-76
2023/09/10 09:40:23;;;;;;;14.33;9.28;;;;;;;26.81;77.00;100887.13;5064367;56;1141002;-75
2023/09/10 09:45:30;;;;;;;11.70;7.80;;;;;;;26.86;78.46;100879.70;5098855;56;1140772;-75
2023/09/10 09:50:35;;;;;;;9.10;7.83;;;;;;;26.97;77.46;100877.68;5119036;56;1140941;-76
2023/09/10 09:55:44;;;;;;;11.70;7.55;;;;;;;27.07;75.16;100874.48;5022270;56;1138803;-74
2023/09/10 10:00:48;;;;;;;8.10;7.30;;;;;;;27.36;76.10;100882.01;4977366;57;1141163;-73
2023/09/10 10:05:55;;;;;;;7.67;6.92;;;;;;;27.64;73.50;100873.48;5000721;57;1138950;-75
2023/09/10 10:11:01;;;;;;;11.18;7.45;;;;;;;27.69;71.08;100864.64;5104545;56;1138834;-75
2023/09/10 10:16:07;;;;;;;10.55;6.78;;;;;;;27.74;71.42;100860.73;5104258;56;1141030;-75
2023/09/10 10:21:14;;;;;;;7.25;6.40;;;;;;;27.97;69.71;100863.63;5066182;56;1140937;-74
2023/09/10 10:26:21;;;;;;;15.32;6.45;;;;;;;28.06;68.23;100862.30;5040274;56;1138877;-74
2023/09/10 10:31:33;;;;;;;8.05;6.67;;;;;;;28.20;66.85;100855.69;5088660;55;1140835;-75
2023/09/10 10:37:05;;;;;;;7.28;6.08;;;;;;;28.35;66.39;100858.03;5052670;56;1138885;-76
2023/09/10 10:42:15;;;;;;;8.23;6.80;;;;;;;28.49;63.56;100856.80;5006542;56;1139010;-74
2023/09/10 10:47:23;;;;;;;6.90;6.17;;;;;;;28.52;63.98;100852.80;5112064;56;1138866;-75
2023/09/10 10:52:32;;;;;;;7.08;6.25;;;;;;;28.61;63.14;100851.41;5015457;57;1138772;-75
2023/09/10 10:57:39;;;;;;;9.25;5.65;;;;;;;28.81;61.57;100851.19;5098957;56;1138808;-74
2023/09/10 11:02:47;;;;;;;11.33;6.17;;;;;;;28.98;61.13;100853.56;5044693;56;1138846;-76
2023/09/10 11:07:57;;;;;;;7.85;5.62;;;;;;;29.13;62.60;100851.24;4974751;55;1140903;-74
2023/09/10 11:13:12;;;;;;;13.87;5.70;;;;;;;29.26;61.50;100850.20;4989365;57;1138898;-75
2023/09/10 11:18:41;;;;;;;6.17;5.58;;;;;;;29.38;60.79;100849.19;5011410;56;1141066;-77
2023/09/10 11:24:18;;;;;;;5.80;5.03;;;;;;;29.57;60.63;100852.66;5119390;56;1139150;-75
2023/09/10 11:29:24;;;;;;;8.70;5.50;;;;;;;29.86;56.46;100847.32;5034690;56;1138891;-75
2023/09/10 11:34:34;;;;;;;10.88;6.05;;;;;;;29.84;55.98;100840.73;5010264;57;1139059;-75
2023/09/10 11:39:40;;;;;;;6.33;5.30;;;;;;;29.79;56.34;100843.34;5037685;56;1141072;-74
2023/09/10 11:44:45;;;;;;;6.37;5.28;;;;;;;29.92;54.24;100839.03;5060338;56;1138790;-75
2023/09/10 11:49:54;;;;;;;5.60;5.03;;;;;;;29.95;54.49;100833.61;4966814;57;1139029;-75
2023/09/10 11:55:00;;;;;;;9.18;5.50;;;;;;;29.98;53.96;100831.80;4952336;57;1138938;-77
2023/09/10 12:00:07;;;;;;;11.70;6.15;;;;;;;30.09;54.42;100829.61;4992039;57;1138769;-76
2023/09/10 12:05:19;;;;;;;9.30;6.02;;;;;;;30.20;55.76;100823.30;5054422;56;1140959;-76
2023/09/10 12:10:25;;;;;;;6.72;5.72;;;;;;;30.32;55.67;100816.44;5083312;56;1138862;-75
2023/09/10 12:15:33;;;;;;;12.05;5.53;;;;;;;30.34;53.34;100819.22;5119020;56;1138902;-76
2023/09/10 12:20:40;;;;;;;10.80;5.62;;;;;;;30.30;54.11;100820.77;5098457;56;1141124;-75
2023/09/10 12:25:56;;;;;;;9.18;5.62;;;;;;;30.44;54.15;100815.86;5015681;56;1141084;-75
2023/09/10 12:31:02;;;;;;;8.78;5.50;;;;;;;30.52;53.11;100802.38;5002292;56;1138861;-75
2023/09/10 12:36:08;;;;;;;6.05;5.12;;;;;;;30.64;53.89;100812.20;4948896;57;1138586;-75
2023/09/10 12:41:17;;;;;;;8.13;5.35;;;;;;;30.73;49.73;100816.72;4916667;58;1138820;-75
2023/09/10 12:46:23;;;;;;;5.97;5.10;;;;;;;30.80;50.60;100809.22;4916255;57;1138892;-76
2023/09/10 12:51:29;;;;;;;6.47;4.62;;;;;;;30.79;48.31;100808.92;4934592;58;1138627;-75
2023/09/10 12:56:41;;;;;;;6.47;4.67;;;;;;;30.74;47.97;100806.09;4996272;57;1138872;-75
2023/09/10 13:01:51;;;;;;;5.55;5.03;;;;;;;30.86;49.11;100794.56;5068434;56;1138735;-76
2023/09/10 13:06:57;;;;;;;13.32;5.60;;;;;;;30.89;47.97;100783.16;5116849;56;1138598;-76
2023/09/10 13:12:02;;;;;;;8.48;5.35;;;;;;;31.04;47.44;100795.71;5100717;55;1140816;-76
2023/09/10 13:17:08;;;;;;;5.70;5.03;;;;;;;31.16;47.50;100790.23;5078728;56;1138810;-76
2023/09/10 13:22:14;;;;;;;6.85;4.58;;;;;;;31.20;46.73;100787.27;5144403;56;1138619;-75
2023/09/10 13:27:19;;;;;;;5.70;4.90;;;;;;;31.27;47.47;100788.48;5163764;55;1195224;-75
2023/09/10 13:32:25;;;;;;;7.67;5.80;;;;;;;31.25;47.68;100794.19;5166149;55;1139098;-74
2023/09/10 13:37:31;;;;;;;8.78;5.55;;;;;;;31.25;46.08;100782.43;5165410;56;1138933;-75
2023/09/10 13:42:37;;;;;;;11.23;6.13;;;;;;;31.27;47.15;100790.67;5099211;56;1138804;-75
2023/09/10 13:47:43;;;;;;;6.85;5.20;;;;;;;31.39;46.76;100787.84;5099113;56;1141110;-75
2023/09/10 13:52:49;;;;;;;5.40;4.90;;;;;;;31.50;46.25;100783.35;5119651;56;1138796;-76
2023/09/10 13:57:54;;;;;;;11.75;6.33;;;;;;;31.45;46.14;100789.05;5098726;56;1138869;-74
2023/09/10 14:03:00;;;;;;;7.28;5.53;;;;;;;31.41;46.32;100793.36;5098809;56;1140585;-75
2023/09/10 14:08:06;;;;;;;11.95;5.53;;;;;;;31.36;45.66;100788.34;5100012;56;1138835;-75
2023/09/10 14:13:11;;;;;;;7.55;6.35;;;;;;;31.31;46.68;100786.91;5119282;56;1140703;-75
2023/09/10 14:18:17;;;;;;;16.62;6.28;;;;;;;31.34;45.96;100783.12;5141864;56;1138936;-75
2023/09/10 14:23:27;;;;;;;6.53;5.92;;;;;;;31.32;46.60;100788.00;5185639;55;1140841;-76
2023/09/10 14:28:29;;;;;;;5.80;5.13;;;;;;;31.39;46.41;100778.28;5205713;55;1138795;-73
2023/09/10 14:33:35;;;;;;;8.97;5.80;;;;;;;31.48;46.82;100780.33;5129608;56;1138449;-72
2023/09/10 14:38:42;;;;;;;6.93;5.13;;;;;;;31.57;46.55;100778.55;5048555;56;1139521;-73
2023/09/10 14:43:48;;;;;;;5.95;5.33;;;;;;;31.58;45.87;100774.73;4964150;57;1138882;-73
2023/09/10 14:48:53;;;;;;;6.17;5.12;;;;;;;31.63;45.65;100769.32;4938956;56;1139206;-73
2023/09/10 14:53:59;;;;;;;5.62;4.90;;;;;;;31.52;44.13;100758.79;5005892;57;1138870;-72
2023/09/10 14:59:05;;;;;;;8.38;5.03;;;;;;;31.52;44.13;100758.79;4958477;57;1138666;-72
2023/09/10 15:04:10;;;;;;;7.05;4.95;;;;;;;31.51;44.82;100765.33;4971901;56;1138656;-73
2023/09/10 15:09:16;;;;;;;7.53;5.03;;;;;;;31.51;44.59;100763.13;5008004;57;1138819;-71
2023/09/10 15:14:21;;;;;;;5.62;4.80;;;;;;;31.49;44.88;100757.92;5053305;56;1138489;-73
2023/09/10 15:19:29;;;;;;;6.80;5.56;;;;;;;31.38;44.93;100747.38;5205585;56;1139015;-72
2023/09/10 15:24:34;;;;;;;7.65;5.33;;;;;;;31.45;45.03;100747.22;5099084;56;1138803;-72
2023/09/10 15:29:40;;;;;;;4.63;4.23;;;;;;;31.47;44.38;100745.06;5139117;56;1138969;-73
2023/09/10 15:34:46;;;;;;;10.10;5.20;;;;;;;31.45;44.85;100738.48;5114945;56;1139108;-72
2023/09/10 15:39:51;;;;;;;7.28;5.30;;;;;;;31.49;45.03;100740.14;4922009;56;1140814;-72
2023/09/10 15:44:57;;;;;;;12.47;4.97;;;;;;;31.55;45.39;100733.69;4974666;57;1138884;-72
2023/09/10 15:50:02;;;;;;;15.13;5.67;;;;;;;31.52;45.25;100738.82;5010798;57;1141072;-72
2023/09/10 15:55:08;;;;;;;5.22;4.83;;;;;;;31.48;45.37;100735.75;4935869;57;1141029;-71
2023/09/10 16:00:15;;;;;;;8.63;6.30;;;;;;;31.48;45.05;100737.12;4967393;55;1138986;-73
2023/09/10 16:05:20;;;;;;;5.22;4.83;;;;;;;31.44;45.52;100733.26;5027540;56;1138865;-73
2023/09/10 16:10:26;;;;;;;6.22;4.95;;;;;;;31.40;44.70;100733.46;4985970;57;1138786;-72
2023/09/10 16:15:33;;;;;;;8.05;6.17;;;;;;;31.39;45.72;100730.44;4997445;57;1138699;-72
2023/09/10 16:20:39;;;;;;;5.62;5.15;;;;;;;31.41;46.34;100733.75;5042384;56;1138904;-72
2023/09/10 16:25:45;;;;;;;7.53;5.62;;;;;;;31.45;46.93;100726.71;5029176;56;1138693;-72
2023/09/10 16:30:51;;;;;;;11.45;6.83;;;;;;;31.38;47.52;100730.15;5056564;56;1139022;-72
2023/09/10 16:35:56;;;;;;;13.95;6.72;;;;;;;31.35;48.04;100726.00;5067309;56;1141007;-72
2023/09/10 16:41:02;;;;;;;11.25;6.37;;;;;;;31.33;49.22;100724.06;4995578;56;1140979;-72
2023/09/10 16:46:08;;;;;;;13.83;6.75;;;;;;;31.23;49.85;100723.09;5017795;57;1140707;-71
2023/09/10 16:51:14;;;;;;;20.82;6.45;;;;;;;30.97;50.77;100720.47;5075454;57;1140758;-71
2023/09/10 16:56:19;;;;;;;37.17;7.10;;;;;;;30.73;52.53;100720.61;5125504;56;1141073;-71
2023/09/10 17:01:29;;;;;;;40.78;9.25;;;;;;;30.48;53.59;100724.77;5174139;55;1140986;-75
2023/09/10 17:06:34;;;;;;;15.40;7.35;;;;;;;30.27;54.86;100727.10;5137898;55;1141012;-72
2023/09/10 17:11:40;;;;;;;25.80;8.63;;;;;;;30.03;56.02;100732.36;5163571;55;1141051;-70
2023/09/10 17:16:46;;;;;;;38.17;8.80;;;;;;;29.81;57.18;100734.03;5184850;55;1140915;-71
2023/09/10 17:21:52;;;;;;;29.25;11.40;;;;;;;29.61;58.35;100733.08;5160110;55;1140910;-72
2023/09/10 17:26:57;;;;;;;29.77;13.13;;;;;;;29.41;59.45;100732.08;5164976;55;1143159;-72
2023/09/10 17:32:03;;;;;;;25.05;11.18;;;;;;;29.18;60.20;100726.05;5079377;56;1143198;-72
2023/09/10 17:37:09;;;;;;;23.38;10.90;;;;;;;29.02;60.95;100731.69;5099320;56;1142805;-70
2023/09/10 17:42:14;;;;;;;21.97;12.68;;;;;;;28.87;61.52;100735.92;5087937;56;1143121;-73
2023/09/10 17:47:28;;;;;;;29.27;9.85;;;;;;;28.65;62.31;100739.14;5099098;56;1143021;-72
2023/09/10 17:52:27;;;;;;;37.83;10.75;;;;;;;28.35;62.92;100734.23;5118982;56;1140940;-73
2023/09/10 17:57:34;;;;;;;25.02;9.98;;;;;;;28.10;64.37;100740.31;5099230;56;1142827;-72
2023/09/10 18:02:40;;;;;;;50.70;24.37;;;;;;;27.98;65.57;100742.94;5109796;56;1141014;-72
2023/09/10 18:07:45;;;;;;;27.22;14.13;;;;;;;27.87;66.12;100740.98;5153912;56;1143230;-72
2023/09/10 18:12:52;;;;;;;81.80;23.98;;;;;;;27.75;66.53;100741.45;5109527;55;1143112;-71
2023/09/10 18:17:58;;;;;;;75.70;35.90;;;;;;;27.53;67.16;100740.48;5106246;56;1143022;-72
2023/09/10 18:23:04;;;;;;;96.72;49.65;;;;;;;27.42;67.93;100737.16;5099315;55;1142929;-71
2023/09/10 18:28:09;;;;;;;62.50;33.48;;;;;;;27.40;68.45;100737.91;5139095;56;1142972;-71
2023/09/10 18:33:15;;;;;;;44.15;23.55;;;;;;;27.26;68.80;100743.99;5184077;55;1142823;-72
2023/09/10 18:38:21;;;;;;;42.03;21.05;;;;;;;27.11;69.43;100738.06;5185567;55;1142884;-71
2023/09/10 18:43:26;;;;;;;30.48;16.10;;;;;;;27.00;69.75;100737.96;5205846;55;1142892;-72
2023/09/10 18:48:32;;;;;;;23.52;13.03;;;;;;;26.86;69.77;100746.70;5180806;55;1142930;-72
2023/09/10 18:53:37;;;;;;;33.00;13.70;;;;;;;26.67;70.39;100754.45;5174257;55;1142888;-71
2023/09/10 18:58:43;;;;;;;22.43;13.90;;;;;;;26.54;71.40;100745.87;5129253;55;1142918;-74
2023/09/10 19:03:49;;;;;;;37.95;20.35;;;;;;;26.43;72.00;100748.73;5179731;55;1142907;-74
2023/09/10 19:08:54;;;;;;;34.08;20.57;;;;;;;26.31;72.31;100745.05;5102050;56;1142820;-74
2023/09/10 19:14:00;;;;;;;26.70;14.23;;;;;;;26.11;72.20;100751.07;5116275;56;1142859;-74
2023/09/10 19:19:10;;;;;;;20.05;13.78;;;;;;;25.83;73.06;100750.00;5098625;56;1142719;-73
2023/09/10 19:24:16;;;;;;;22.87;15.98;;;;;;;25.73;74.32;100750.97;5121687;56;1143100;-73
2023/09/10 19:29:21;;;;;;;28.55;15.68;;;;;;;25.66;74.38;100753.72;5062868;56;1143085;-74
2023/09/10 19:34:27;;;;;;;34.25;19.23;;;;;;;25.55;74.30;100748.38;5026572;56;1143149;-73
2023/09/10 19:39:33;;;;;;;26.93;17.77;;;;;;;25.25;74.27;100744.45;4934835;58;1142835;-73
2023/09/10 19:44:38;;;;;;;23.00;15.88;;;;;;;25.16;76.01;100746.55;5030933;56;1143292;-74
2023/09/10 19:49:46;;;;;;;27.07;17.00;;;;;;;25.12;76.66;100743.95;4995905;57;1143380;-73
2023/09/10 19:54:51;;;;;;;23.92;15.70;;;;;;;25.07;76.87;100740.19;5020492;57;1143036;-73
2023/09/10 19:59:57;;;;;;;23.10;15.15;;;;;;;25.03;77.12;100745.20;5098103;56;1143065;-72
2023/09/10 20:05:03;;;;;;;36.20;17.30;;;;;;;24.99;77.10;100745.81;5086974;55;1142845;-74
2023/09/10 20:10:10;;;;;;;39.10;21.50;;;;;;;24.94;77.40;100742.37;4995931;57;1152814;-74
2023/09/10 20:15:15;;;;;;;37.35;24.20;;;;;;;24.76;76.82;100733.47;5015230;57;1143030;-75
2023/09/10 20:20:21;;;;;;;33.90;22.52;;;;;;;24.68;77.98;100735.55;4965976;57;1142928;-75
2023/09/10 20:25:27;;;;;;;24.67;17.12;;;;;;;24.63;78.04;100732.63;4927258;57;1142766;-75
2023/09/10 20:30:33;;;;;;;28.77;16.12;;;;;;;24.54;78.01;100737.41;5084442;56;1143176;-74
2023/09/10 20:35:38;;;;;;;26.65;14.68;;;;;;;24.46;78.47;100740.28;4991515;58;1143045;-75
2023/09/10 20:40:44;;;;;;;27.67;15.83;;;;;;;24.39;79.01;100742.15;5091234;55;1142927;-75
2023/09/10 20:45:54;;;;;;;25.20;16.70;;;;;;;24.30;79.12;100742.83;5148615;55;1143111;-75
2023/09/10 20:50:58;;;;;;;17.17;14.68;;;;;;;24.20;79.26;100735.60;5107393;56;1142763;-74
2023/09/10 20:56:04;;;;;;;27.42;18.10;;;;;;;24.17;79.06;100746.30;5105001;56;1142815;-75
2023/09/10 21:01:09;;;;;;;25.87;17.43;;;;;;;23.97;78.52;100740.00;5109773;56;1142851;-74
2023/09/10 21:06:15;;;;;;;19.70;15.00;;;;;;;23.72;78.89;100744.20;5126588;56;1142883;-73
2023/09/10 21:11:21;;;;;;;21.17;14.30;;;;;;;23.71;80.56;100742.02;5106574;56;1142838;-74
2023/09/10 21:16:26;;;;;;;16.95;13.72;;;;;;;23.76;80.46;100740.09;5128954;56;1142658;-75
2023/09/10 21:21:32;;;;;;;19.45;14.20;;;;;;;23.59;79.59;100743.62;5060573;56;1142984;-75
2023/09/10 21:26:37;;;;;;;18.15;13.05;;;;;;;23.29;79.49;100740.78;4920829;58;1142820;-75
2023/09/10 21:31:43;;;;;;;20.88;13.70;;;;;;;23.14;80.97;100740.36;5093888;56;1143324;-74
2023/09/10 21:36:49;;;;;;;19.05;14.05;;;;;;;22.89;80.63;100741.81;5163841;55;1143011;-74
2023/09/10 21:41:55;;;;;;;16.48;13.10;;;;;;;22.61;81.58;100743.59;4942327;57;1142832;-74
2023/09/10 21:47:01;;;;;;;18.77;13.93;;;;;;;22.65;84.09;100739.45;4947543;57;1142933;-75
2023/09/10 21:52:06;;;;;;;14.38;11.50;;;;;;;22.71;84.02;100730.09;4871853;58;1143068;-75
2023/09/10 21:57:12;;;;;;;14.75;12.13;;;;;;;22.69;83.93;100729.97;4930462;57;1142926;-74
2023/09/10 22:02:17;;;;;;;16.12;11.63;;;;;;;22.69;83.83;100728.62;4907627;58;1142948;-75
2023/09/10 22:07:23;;;;;;;15.38;11.08;;;;;;;22.53;83.69;100723.48;4905406;58;1143261;-75
2023/09/10 22:12:29;;;;;;;18.90;10.48;;;;;;;22.53;85.03;100724.82;4927524;58;1143256;-74
2023/09/10 22:17:34;;;;;;;18.92;10.60;;;;;;;22.59;84.85;100726.25;4911524;58;1142831;-75
2023/09/10 22:22:40;;;;;;;21.33;11.88;;;;;;;22.55;83.95;100722.27;4910953;58;1142960;-74
2023/09/10 22:27:46;;;;;;;20.92;12.30;;;;;;;22.48;84.23;100711.08;4941294;57;1143091;-74
2023/09/10 22:32:51;;;;;;;14.75;11.03;;;;;;;22.42;84.90;100719.44;4990827;57;1143248;-74
2023/09/10 22:37:58;;;;;;;13.43;10.25;;;;;;;22.28;84.14;100713.58;4911944;58;1143164;-74
2023/09/10 22:43:04;;;;;;;15.93;11.08;;;;;;;21.89;83.36;100725.50;4934883;57;1142815;-74
2023/09/10 22:48:09;;;;;;;14.35;11.57;;;;;;;21.47;84.95;100721.29;5091865;56;1142767;-74
2023/09/10 22:53:15;;;;;;;17.12;11.75;;;;;;;21.44;86.06;100714.92;5074646;56;1143225;-74